Terminal Aerodrome Forecast
Issued by NWS

Home | Current Version | Previous Version | Text Only | Print | Product List | Glossary On
Versions: 1 2 3 4 5 6 7 8 9 10 11 12 13 14 15 16 17 18 19 20 21 22 23 24
000
FTUS45 KRIW 072321
TAFPNA
TAF
KPNA 072321Z 0800/0824 VRB10G20KT P6SM VCTS SCT050CB BKN080
      TEMPO 0800/0802 -TSRA BKN050CB
     FM080300 VRB06KT P6SM VCSH BKN050
     FM080600 35006KT P6SM SCT050 BKN100
     FM081600 13006KT P6SM VCSH SCT050 BKN080
     FM081900 VRB12G22KT P6SM VCTS SCT050CB BKN080
      AMD LTD TO CLD VIS AND WIND=

USA.gov is the U.S. government's official web portal to all federal, state and local government web resources and services.